Time;durP1;ratioP1;P1;durP2;ratioP2;P2;SDS_P1;SDS_P2;PMS_P1;PMS_P2;Temp;Humidity;BMP_temperature;BMP_pressure;BME280_temperature;BME280_humidity;BME280_pressure;Samples;Min_cycle;Max_cycle;Signal;HPM_P1;HPM_P2
2022/10/28 00:00:13;;;;;;;;;;;;;;;16.44;48.08;102156.16;4958762;28;1914;-48
2022/10/28 00:02:39;;;;;;;;;;;;;;;16.75;48.31;102154.13;4958695;28;1149;-56
2022/10/28 00:05:05;;;;;;;;;;;;;;;16.72;49.03;102147.19;4989274;28;2791;-49
2022/10/28 00:07:31;;;;;;;;;;;;;;;16.50;48.09;102140.66;4958916;28;1101;-51
2022/10/28 00:09:56;;;;;;;;;;;;;;;16.38;47.65;102151.63;4958670;28;1069;-53
2022/10/28 00:12:21;;;;;;;;;;;;;;;16.27;46.71;102149.72;4958808;28;1161;-51
2022/10/28 00:14:47;;;;;;;;;;;;;;;17.22;47.80;102148.53;4975713;28;1152;-56
2022/10/28 00:17:12;;;;;;;;;;;;;;;16.56;48.39;102153.41;4958421;28;911;-55
2022/10/28 00:19:38;;;;;;;;;;;;;;;16.33;48.00;102151.50;4958612;28;1910;-59
2022/10/28 00:22:03;;;;;;;;;;;;;;;16.27;47.12;102150.56;4958528;28;1094;-52
2022/10/28 00:24:28;;;;;;;;;;;;;;;16.15;46.71;102144.22;4946871;28;1141;-57
2022/10/28 00:26:54;;;;;;;;;;;;;;;16.08;46.54;102152.56;4957146;29;1146;-56
2022/10/28 00:29:19;;;;;;;;;;;;;;;15.99;46.18;102151.22;4958271;28;1200;-56
2022/10/28 00:31:45;;;;;;;;;;;;;;;15.83;46.17;102139.03;4958308;28;1188;-57
2022/10/28 00:34:15;;;;;;;;;;;;;;;16.26;46.31;102143.41;4949869;28;2429;-54
2022/10/28 00:36:41;;;;;;;;;;;;;;;16.46;48.12;102142.19;4953265;29;1200;-54
2022/10/28 00:39:08;;;;;;;;;;;;;;;16.51;48.46;102140.41;4952268;28;1919;-55
2022/10/28 00:41:34;;;;;;;;;;;;;;;17.94;48.45;102140.78;4982539;28;1159;-55
2022/10/28 00:44:02;;;;;;;;;;;;;;;16.83;49.64;102133.66;4958198;28;1125;-53
2022/10/28 00:46:37;;;;;;;;;;;;;;;16.51;49.22;102139.56;4958307;28;1200;-49
2022/10/28 00:49:13;;;;;;;;;;;;;;;16.75;48.91;102145.88;4953957;28;1106;-56
2022/10/28 00:51:38;;;;;;;;;;;;;;;16.66;49.60;102136.31;4981263;28;1144;-56
2022/10/28 00:54:04;;;;;;;;;;;;;;;16.47;48.59;102139.22;4958008;28;1173;-53
2022/10/28 00:56:29;;;;;;;;;;;;;;;17.21;48.75;102137.78;4958121;28;1129;-52
2022/10/28 00:58:55;;;;;;;;;;;;;;;16.67;49.03;102140.75;4946793;28;1915;-54
2022/10/28 01:01:21;;;;;;;;;;;;;;;16.46;48.19;102136.72;4983134;28;1238;-56
2022/10/28 01:03:46;;;;;;;;;;;;;;;16.40;47.64;102128.34;4946998;28;1836;-53
2022/10/28 01:06:12;;;;;;;;;;;;;;;17.05;48.31;102133.88;4957304;29;1110;-56
2022/10/28 01:08:37;;;;;;;;;;;;;;;16.55;48.13;102127.88;4981567;28;1144;-55
2022/10/28 01:11:17;;;;;;;;;;;;;;;16.36;47.60;102135.38;4951945;28;1216;-53
2022/10/28 01:13:49;;;;;;;;;;;;;;;16.97;49.20;102132.38;4945408;29;1082;-52
2022/10/28 01:16:21;;;;;;;;;;;;;;;16.46;48.79;102126.56;4958198;28;1070;-53
2022/10/28 01:18:50;;;;;;;;;;;;;;;16.50;47.53;102127.75;4957303;28;1975;-52
2022/10/28 01:21:24;;;;;;;;;;;;;;;16.35;47.03;102130.97;4975592;28;1141;-53
2022/10/28 01:24:09;;;;;;;;;;;;;;;17.05;48.42;102134.69;4945175;29;1150;-53
2022/10/28 01:26:46;;;;;;;;;;;;;;;16.48;48.28;102129.06;4956236;29;1193;-54
2022/10/28 01:29:12;;;;;;;;;;;;;;;16.27;47.81;102128.59;4947108;29;1418;-50
2022/10/28 01:31:40;;;;;;;;;;;;;;;16.21;47.02;102124.88;4957832;28;1121;-55
2022/10/28 01:34:11;;;;;;;;;;;;;;;16.12;46.44;102128.22;4957404;28;2542;-53
2022/10/28 01:37:00;;;;;;;;;;;;;;;16.07;46.27;102128.94;4974825;28;1203;-52
2022/10/28 01:39:25;;;;;;;;;;;;;;;16.02;45.93;102137.03;4957576;28;1993;-53
2022/10/28 01:41:53;;;;;;;;;;;;;;;16.08;46.51;102127.88;4957407;28;1106;-53
2022/10/28 01:44:18;;;;;;;;;;;;;;;16.94;47.92;102132.81;4949444;29;1196;-47
2022/10/28 01:46:44;;;;;;;;;;;;;;;16.35;47.71;102136.44;4952455;28;1196;-50
2022/10/28 01:49:12;;;;;;;;;;;;;;;17.62;47.96;102138.56;4956090;28;1138;-50
2022/10/28 01:51:40;;;;;;;;;;;;;;;16.95;49.07;102131.75;4953365;29;1162;-52
2022/10/28 01:54:06;;;;;;;;;;;;;;;16.56;48.53;102125.94;4981211;28;1251;-51
2022/10/28 01:56:32;;;;;;;;;;;;;;;16.33;47.78;102127.63;4982122;28;1168;-53
2022/10/28 01:58:58;;;;;;;;;;;;;;;16.15;47.23;102136.00;4960032;29;1910;-51
2022/10/28 02:01:23;;;;;;;;;;;;;;;17.01;47.69;102129.94;4974244;28;1180;-52
2022/10/28 02:03:49;;;;;;;;;;;;;;;17.01;49.10;102133.56;4982723;28;2429;-51
2022/10/28 02:06:16;;;;;;;;;;;;;;;16.50;48.57;102127.75;4959597;29;1125;-52
2022/10/28 02:08:44;;;;;;;;;;;;;;;16.38;48.05;102127.75;4984124;28;1156;-51
2022/10/28 02:11:17;;;;;;;;;;;;;;;16.33;46.90;102122.16;4955857;29;1469;-53
2022/10/28 02:13:42;;;;;;;;;;;;;;;16.17;46.73;102128.34;4984921;28;1156;-50
2022/10/28 02:16:16;;;;;;;;;;;;;;;16.98;47.79;102136.75;4954632;29;1169;-51
2022/10/28 02:18:44;;;;;;;;;;;;;;;16.41;47.88;102126.44;4955080;28;1911;-51
2022/10/28 02:21:20;;;;;;;;;;;;;;;16.25;47.29;102136.22;4962983;28;1117;-51
2022/10/28 02:24:03;;;;;;;;;;;;;;;16.14;46.92;102128.81;4947197;28;1158;-53
2022/10/28 02:26:36;;;;;;;;;;;;;;;17.20;47.72;102127.88;4978183;28;1108;-52
2022/10/28 02:29:01;;;;;;;;;;;;;;;16.45;48.41;102129.53;4984496;28;1136;-51
2022/10/28 02:31:34;;;;;;;;;;;;;;;16.29;47.68;102123.69;4960475;29;897;-52
2022/10/28 02:34:01;;;;;;;;;;;;;;;17.01;48.01;102133.56;4975798;28;2528;-51
2022/10/28 02:36:27;;;;;;;;;;;;;;;16.48;48.64;102132.66;4984751;28;1196;-52
2022/10/28 02:38:52;;;;;;;;;;;;;;;16.24;47.96;102145.53;4977425;28;1914;-53
2022/10/28 02:41:19;;;;;;;;;;;;;;;16.16;47.18;102134.91;4981926;28;1133;-53
2022/10/28 02:43:44;;;;;;;;;;;;;;;16.10;46.84;102138.59;4959475;29;1222;-52
2022/10/28 02:46:10;;;;;;;;;;;;;;;16.40;47.30;102133.00;4958875;29;1121;-50
2022/10/28 02:48:37;;;;;;;;;;;;;;;16.92;48.15;102135.81;4960302;28;1114;-52
2022/10/28 02:51:13;;;;;;;;;;;;;;;16.44;48.00;102134.19;4984460;28;1148;-55
2022/10/28 02:53:45;;;;;;;;;;;;;;;16.15;47.75;102133.25;4985149;28;1168;-52
2022/10/28 02:56:10;;;;;;;;;;;;;;;17.00;47.99;102142.88;4959887;28;1160;-52
2022/10/28 02:58:39;;;;;;;;;;;;;;;16.35;48.65;102135.63;4958423;28;1983;-48
2022/10/28 03:01:05;;;;;;;;;;;;;;;16.30;47.30;102139.09;4959567;28;1153;-55
2022/10/28 03:03:30;;;;;;;;;;;;;;;16.14;47.18;102145.28;4960089;28;1864;-56
2022/10/28 03:05:56;;;;;;;;;;;;;;;15.90;46.86;102135.09;4951401;28;1133;-56
2022/10/28 03:08:23;;;;;;;;;;;;;;;15.90;46.27;102140.59;4960270;28;1126;-54
2022/10/28 03:10:49;;;;;;;;;;;;;;;16.55;47.62;102140.75;4960280;28;1285;-54
2022/10/28 03:13:14;;;;;;;;;;;;;;;16.47;47.95;102146.63;4959847;28;1214;-54
2022/10/28 03:15:39;;;;;;;;;;;;;;;18.04;47.72;102143.69;4950943;28;1105;-54
2022/10/28 03:18:05;;;;;;;;;;;;;;;16.91;49.44;102138.81;4954994;29;1204;-50
2022/10/28 03:20:30;;;;;;;;;;;;;;;16.55;49.04;102146.22;4959907;28;1898;-50
2022/10/28 03:22:56;;;;;;;;;;;;;;;16.38;48.25;102138.75;4959721;28;1147;-56
2022/10/28 03:25:21;;;;;;;;;;;;;;;16.71;48.70;102140.00;4941315;28;1146;-51
2022/10/28 03:27:47;;;;;;;;;;;;;;;16.69;48.81;102150.41;4951437;28;1129;-52
2022/10/28 03:30:13;;;;;;;;;;;;;;;16.35;48.32;102154.84;4955893;28;1153;-50
2022/10/28 03:32:40;;;;;;;;;;;;;;;16.31;47.42;102148.97;4949531;29;1160;-51
2022/10/28 03:35:06;;;;;;;;;;;;;;;16.46;47.45;102145.78;4959369;28;2485;-51
2022/10/28 03:37:31;;;;;;;;;;;;;;;16.90;48.82;102148.13;4982924;28;1144;-50
2022/10/28 03:40:00;;;;;;;;;;;;;;;16.42;48.83;102148.19;4952970;28;1969;-51
2022/10/28 03:42:25;;;;;;;;;;;;;;;16.29;47.95;102153.88;4959430;28;1255;-52
2022/10/28 03:44:50;;;;;;;;;;;;;;;16.23;47.13;102152.94;4959425;28;1212;-51
2022/10/28 03:47:16;;;;;;;;;;;;;;;16.36;46.98;102146.38;4959280;28;1102;-52
2022/10/28 03:49:41;;;;;;;;;;;;;;;16.91;48.40;102144.31;4959005;28;1129;-54
2022/10/28 03:52:07;;;;;;;;;;;;;;;16.37;48.66;102153.53;4959124;28;1189;-54
2022/10/28 03:54:32;;;;;;;;;;;;;;;16.28;47.45;102154.94;4958926;28;1153;-54
2022/10/28 03:56:57;;;;;;;;;;;;;;;16.97;48.62;102148.00;4958889;28;1173;-55
2022/10/28 03:59:23;;;;;;;;;;;;;;;16.35;48.84;102146.59;4945441;28;1975;-55
2022/10/28 04:01:48;;;;;;;;;;;;;;;17.09;48.53;102141.38;4958714;28;1153;-56
2022/10/28 04:04:14;;;;;;;;;;;;;;;16.77;48.90;102154.69;4959086;28;1852;-55
2022/10/28 04:06:39;;;;;;;;;;;;;;;16.39;48.53;102145.06;4958712;28;1030;-53
2022/10/28 04:09:04;;;;;;;;;;;;;;;17.07;48.95;102151.81;4958644;28;1177;-59
2022/10/28 04:11:30;;;;;;;;;;;;;;;16.51;48.83;102156.03;4955914;28;908;-56
2022/10/28 04:13:55;;;;;;;;;;;;;;;17.61;48.83;102153.38;4948774;28;1117;-57
2022/10/28 04:16:21;;;;;;;;;;;;;;;17.10;49.64;102154.06;4960410;28;1170;-57
2022/10/28 04:18:46;;;;;;;;;;;;;;;16.73;49.40;102156.25;4958351;28;1907;-57
2022/10/28 04:21:12;;;;;;;;;;;;;;;16.58;48.12;102156.75;4958144;28;1034;-57
2022/10/28 04:23:37;;;;;;;;;;;;;;;16.65;48.38;102151.97;4958852;28;1153;-56
2022/10/28 04:26:03;;;;;;;;;;;;;;;16.85;49.12;102162.56;4944923;28;1153;-55
2022/10/28 04:28:28;;;;;;;;;;;;;;;16.62;48.19;102148.88;4958659;28;1207;-54
2022/10/28 04:30:53;;;;;;;;;;;;;;;16.33;48.25;102159.75;4958157;28;1197;-56
2022/10/28 04:33:19;;;;;;;;;;;;;;;16.38;47.92;102155.22;4958374;28;2405;-56
2022/10/28 04:35:44;;;;;;;;;;;;;;;16.84;48.83;102162.81;4958484;28;1160;-56
2022/10/28 04:38:10;;;;;;;;;;;;;;;16.43;48.44;102159.97;4973542;28;1190;-57
2022/10/28 04:40:36;;;;;;;;;;;;;;;16.38;47.62;102159.84;4977577;28;1992;-55
2022/10/28 04:43:01;;;;;;;;;;;;;;;16.34;47.00;102170.50;4957428;28;1133;-57
2022/10/28 04:45:26;;;;;;;;;;;;;;;16.95;48.74;102167.47;4958388;28;1098;-56
2022/10/28 04:47:55;;;;;;;;;;;;;;;16.47;48.59;102161.19;4958174;28;1146;-56
2022/10/28 04:50:21;;;;;;;;;;;;;;;16.31;48.14;102172.88;4958227;28;1129;-56
2022/10/28 04:52:46;;;;;;;;;;;;;;;16.26;47.39;102170.84;4958061;28;1121;-55
2022/10/28 04:55:12;;;;;;;;;;;;;;;16.81;48.39;102168.78;4957983;28;1086;-56
2022/10/28 04:57:37;;;;;;;;;;;;;;;16.39;48.16;102165.09;4958066;28;1106;-56
2022/10/28 05:00:03;;;;;;;;;;;;;;;16.31;47.64;102170.13;4957735;28;1907;-54
2022/10/28 05:02:28;;;;;;;;;;;;;;;16.12;47.35;102174.84;4957900;28;1109;-52
2022/10/28 05:04:54;;;;;;;;;;;;;;;16.12;46.94;102172.13;4957835;28;1915;-55
2022/10/28 05:07:19;;;;;;;;;;;;;;;16.88;47.86;102172.25;4957801;28;1145;-56
2022/10/28 05:09:44;;;;;;;;;;;;;;;16.43;47.94;102177.28;4957767;28;1161;-57
2022/10/28 05:12:10;;;;;;;;;;;;;;;17.23;48.38;102179.59;4949488;28;1148;-56
2022/10/28 05:14:35;;;;;;;;;;;;;;;17.44;49.25;102173.41;4953003;29;1133;-56
2022/10/28 05:17:01;;;;;;;;;;;;;;;16.77;49.43;102182.16;4957674;28;1122;-55
2022/10/28 05:19:26;;;;;;;;;;;;;;;16.42;48.82;102192.09;4957365;28;1910;-53
2022/10/28 05:21:51;;;;;;;;;;;;;;;16.53;48.35;102203.31;4960299;28;1153;-50
2022/10/28 05:24:17;;;;;;;;;;;;;;;17.02;49.41;102203.06;4961377;28;1117;-56
2022/10/28 05:26:42;;;;;;;;;;;;;;;16.61;48.44;102202.97;4961656;28;1161;-54
2022/10/28 05:29:08;;;;;;;;;;;;;;;16.46;47.98;102213.59;4961745;28;1108;-55
2022/10/28 05:31:33;;;;;;;;;;;;;;;16.32;47.26;102211.06;4961718;28;1145;-52
2022/10/28 05:33:59;;;;;;;;;;;;;;;16.19;47.06;102208.53;4961598;28;2506;-56
2022/10/28 05:36:24;;;;;;;;;;;;;;;17.31;46.05;102214.13;4961724;28;1181;-56
2022/10/28 05:38:50;;;;;;;;;;;;;;;16.72;47.65;102224.09;4961785;28;1979;-56
2022/10/28 05:41:15;;;;;;;;;;;;;;;16.49;48.72;102224.09;4961593;28;1091;-56
2022/10/28 05:43:40;;;;;;;;;;;;;;;16.28;49.20;102220.81;4961482;28;1177;-56
2022/10/28 05:46:06;;;;;;;;;;;;;;;16.15;49.99;102229.28;4961486;28;1193;-56
2022/10/28 05:48:31;;;;;;;;;;;;;;;16.05;50.12;102230.69;4961033;28;1220;-57
2022/10/28 05:50:57;;;;;;;;;;;;;;;15.96;50.64;102232.09;4947765;28;947;-56
2022/10/28 05:53:22;;;;;;;;;;;;;;;15.84;51.02;102223.00;4961243;28;1188;-54
2022/10/28 05:55:47;;;;;;;;;;;;;;;15.80;51.39;102227.28;4960850;28;1133;-54
2022/10/28 05:58:13;;;;;;;;;;;;;;;15.70;52.00;102236.84;4961321;29;1058;-56
2022/10/28 06:00:38;;;;;;;;;;;;;;;15.62;52.29;102237.19;4961131;28;1996;-53
2022/10/28 06:03:09;;;;;;;;;;;;;;;15.56;52.48;102230.72;4959609;28;2255;-53
2022/10/28 06:05:35;;;;;;;;;;;;;;;16.97;49.31;102233.19;4961487;29;1090;-54
2022/10/28 06:08:00;;;;;;;;;;;;;;;16.74;49.55;102232.09;4960699;28;1110;-54
2022/10/28 06:10:26;;;;;;;;;;;;;;;16.10;51.47;102226.41;4960842;28;1125;-54
2022/10/28 06:12:53;;;;;;;;;;;;;;;15.86;52.20;102229.09;4978213;28;1144;-55
2022/10/28 06:15:18;;;;;;;;;;;;;;;15.78;52.71;102240.34;4960479;28;1168;-54
2022/10/28 06:17:46;;;;;;;;;;;;;;;15.63;52.82;102233.38;4960880;28;1169;-53
2022/10/28 06:20:11;;;;;;;;;;;;;;;16.67;50.79;102232.22;4960162;28;1983;-53
2022/10/28 06:22:37;;;;;;;;;;;;;;;17.02;49.70;102231.38;4960452;28;1150;-51
2022/10/28 06:25:02;;;;;;;;;;;;;;;16.23;51.88;102226.22;4960732;28;1146;-52
2022/10/28 06:27:28;;;;;;;;;;;;;;;16.05;52.53;102235.34;4960761;28;1204;-51
2022/10/28 06:29:53;;;;;;;;;;;;;;;15.83;52.94;102235.88;4960974;28;1114;-55
2022/10/28 06:32:18;;;;;;;;;;;;;;;15.69;53.35;102237.91;4959726;28;995;-52
2022/10/28 06:34:44;;;;;;;;;;;;;;;15.94;53.04;102238.91;4960517;29;2575;-53
2022/10/28 06:37:09;;;;;;;;;;;;;;;17.50;49.18;102240.38;4960295;28;1227;-56
2022/10/28 06:39:36;;;;;;;;;;;;;;;16.41;52.00;102238.97;4980922;28;1965;-54
2022/10/28 06:42:02;;;;;;;;;;;;;;;16.09;52.79;102239.31;4957314;29;1190;-54
2022/10/28 06:44:27;;;;;;;;;;;;;;;15.89;53.51;102247.81;4960169;28;887;-53
2022/10/28 06:46:53;;;;;;;;;;;;;;;15.72;53.69;102237.47;4959670;28;1149;-53
2022/10/28 06:49:18;;;;;;;;;;;;;;;16.97;50.73;102247.78;4960400;28;1094;-51
2022/10/28 06:51:44;;;;;;;;;;;;;;;16.80;51.06;102252.28;4960326;28;1185;-50
2022/10/28 06:54:09;;;;;;;;;;;;;;;16.18;52.77;102248.03;4960491;28;1169;-53
2022/10/28 06:56:35;;;;;;;;;;;;;;;15.98;53.31;102243.69;4959888;28;864;-56
2022/10/28 06:59:00;;;;;;;;;;;;;;;15.79;53.75;102242.03;4960130;29;1963;-54
2022/10/28 07:01:25;;;;;;;;;;;;;;;15.68;54.21;102249.97;4959991;28;1122;-53
2022/10/28 07:03:51;;;;;;;;;;;;;;;15.64;54.23;102251.50;4960201;28;2258;-55
2022/10/28 07:06:16;;;;;;;;;;;;;;;17.37;49.94;102246.97;4959773;28;1180;-55
2022/10/28 07:08:42;;;;;;;;;;;;;;;16.66;51.77;102251.69;4959702;28;1000;-55
2022/10/28 07:11:07;;;;;;;;;;;;;;;16.14;53.09;102244.06;4959617;28;1137;-55
2022/10/28 07:13:32;;;;;;;;;;;;;;;15.88;53.91;102246.97;4959818;28;1212;-55
2022/10/28 07:15:58;;;;;;;;;;;;;;;15.81;53.90;102250.88;4959803;28;1165;-52
2022/10/28 07:18:24;;;;;;;;;;;;;;;15.68;54.22;102247.25;4942389;28;1113;-53
2022/10/28 07:20:50;;;;;;;;;;;;;;;16.76;51.97;102258.25;4952509;28;1914;-53
2022/10/28 07:23:15;;;;;;;;;;;;;;;17.22;50.53;102247.50;4959526;28;1158;-54
2022/10/28 07:25:40;;;;;;;;;;;;;;;16.35;52.99;102249.00;4959767;28;1150;-49
2022/10/28 07:28:06;;;;;;;;;;;;;;;16.06;53.71;102243.34;4959385;28;1153;-50
2022/10/28 07:30:32;;;;;;;;;;;;;;;15.88;54.11;102238.75;4971543;28;1180;-52
2022/10/28 07:32:59;;;;;;;;;;;;;;;15.86;54.21;102243.63;4942424;28;2341;-55
2022/10/28 07:35:28;;;;;;;;;;;;;;;15.68;54.84;102241.75;4959184;28;1177;-56
2022/10/28 07:37:54;;;;;;;;;;;;;;;15.60;54.77;102247.56;4959160;28;1106;-56
2022/10/28 07:40:20;;;;;;;;;;;;;;;17.28;50.94;102240.19;4959284;28;1918;-55
2022/10/28 07:42:45;;;;;;;;;;;;;;;16.76;52.25;102236.28;4959405;28;1148;-54
2022/10/28 07:45:11;;;;;;;;;;;;;;;16.16;53.68;102248.28;4958700;28;1143;-54
2022/10/28 07:47:36;;;;;;;;;;;;;;;15.97;54.51;102244.75;4959348;28;1228;-53
2022/10/28 07:50:01;;;;;;;;;;;;;;;15.87;54.62;102252.72;4959289;28;1120;-52
2022/10/28 07:52:27;;;;;;;;;;;;;;;15.73;55.08;102250.09;4958856;28;1109;-52
2022/10/28 07:54:52;;;;;;;;;;;;;;;16.14;54.79;102252.31;4959395;28;1114;-49
2022/10/28 07:57:18;;;;;;;;;;;;;;;17.60;51.18;102248.00;4958518;28;910;-51
2022/10/28 07:59:44;;;;;;;;;;;;;;;16.56;53.89;102244.03;4944794;28;1919;-50
2022/10/28 08:02:13;;;;;;;;;;;;;;;16.18;54.81;102246.09;4959109;28;1204;-50
2022/10/28 08:04:38;;;;;;;;;;;;;;;16.01;55.18;102245.94;4976288;28;2434;-51
2022/10/28 08:07:04;;;;;;;;;;;;;;;15.93;55.81;102253.69;4965448;28;1140;-48
2022/10/28 08:09:29;;;;;;;;;;;;;;;16.87;53.94;102247.50;4953723;28;973;-51
2022/10/28 08:11:55;;;;;;;;;;;;;;;17.14;53.13;102244.25;4958726;28;1137;-51
2022/10/28 08:14:21;;;;;;;;;;;;;;;16.37;54.99;102238.63;4958794;28;1193;-52
2022/10/28 08:16:46;;;;;;;;;;;;;;;16.12;55.33;102236.09;4958827;28;1130;-51
2022/10/28 08:19:12;;;;;;;;;;;;;;;15.96;55.80;102240.31;4958760;28;1979;-51
2022/10/28 08:21:37;;;;;;;;;;;;;;;15.88;55.59;102240.66;4958379;28;1130;-50
2022/10/28 08:24:03;;;;;;;;;;;;;;;15.74;55.75;102235.31;4958427;28;1192;-51
2022/10/28 08:26:29;;;;;;;;;;;;;;;15.69;55.89;102239.84;4958793;28;1090;-53
2022/10/28 08:28:54;;;;;;;;;;;;;;;16.55;54.72;102245.09;4958267;28;1212;-50
2022/10/28 08:31:20;;;;;;;;;;;;;;;17.43;52.22;102240.50;4958285;28;1153;-49
2022/10/28 08:33:45;;;;;;;;;;;;;;;16.42;54.70;102247.00;4957790;28;2339;-50
2022/10/28 08:36:11;;;;;;;;;;;;;;;16.19;55.33;102253.28;4958518;28;1114;-49
2022/10/28 08:38:37;;;;;;;;;;;;;;;16.02;55.76;102247.63;4958751;28;1150;-47
2022/10/28 08:41:05;;;;;;;;;;;;;;;15.81;56.06;102239.91;4958544;28;1110;-50
2022/10/28 08:43:33;;;;;;;;;;;;;;;15.78;56.02;102241.19;4957992;28;1113;-50
2022/10/28 08:46:00;;;;;;;;;;;;;;;15.70;55.79;102236.03;4958299;28;1192;-50
2022/10/28 08:48:30;;;;;;;;;;;;;;;16.80;54.13;102241.28;4975929;28;1187;-53
2022/10/28 08:51:19;;;;;;;;;;;;;;;16.96;53.32;102237.00;4958422;28;1189;-51
2022/10/28 08:53:52;;;;;;;;;;;;;;;16.32;55.18;102244.00;4976373;28;1343;-52
2022/10/28 08:56:45;;;;;;;;;;;;;;;16.05;55.88;102246.31;4971084;28;1125;-52
2022/10/28 08:59:30;;;;;;;;;;;;;;;15.89;55.73;102239.56;4955323;28;1914;-50
2022/10/28 09:01:56;;;;;;;;;;;;;;;15.74;55.88;102234.50;4958585;28;1098;-47
2022/10/28 09:04:30;;;;;;;;;;;;;;;15.76;56.04;102237.00;4987523;28;2641;-53
2022/10/28 09:06:56;;;;;;;;;;;;;;;17.50;52.20;102225.78;4957814;28;1094;-51
2022/10/28 09:09:21;;;;;;;;;;;;;;;16.75;54.06;102231.84;4957888;28;1102;-51
2022/10/28 09:12:06;;;;;;;;;;;;;;;16.29;55.21;102227.19;4956591;29;1125;-52
2022/10/28 09:14:34;;;;;;;;;;;;;;;16.11;55.69;102228.09;4957836;28;1141;-51
2022/10/28 09:17:03;;;;;;;;;;;;;;;15.92;55.90;102219.91;4958047;28;1212;-52
2022/10/28 09:19:31;;;;;;;;;;;;;;;15.87;55.80;102228.03;4957523;28;1985;-51
2022/10/28 09:21:56;;;;;;;;;;;;;;;16.23;55.50;102215.22;4952181;28;1161;-55
2022/10/28 09:24:23;;;;;;;;;;;;;;;17.62;51.93;102212.81;4949430;29;1136;-50
2022/10/28 09:27:00;;;;;;;;;;;;;;;16.63;54.14;102209.03;4944047;28;1121;-50
2022/10/28 09:29:38;;;;;;;;;;;;;;;16.21;55.21;102201.72;4956458;29;1142;-51
2022/10/28 09:32:04;;;;;;;;;;;;;;;16.03;55.50;102204.56;4974375;28;1129;-49
2022/10/28 09:34:41;;;;;;;;;;;;;;;15.99;55.99;102215.19;4956117;29;2459;-49
2022/10/28 09:37:15;;;;;;;;;;;;;;;15.81;56.09;102207.00;4957836;28;1244;-52
2022/10/28 09:39:41;;;;;;;;;;;;;;;15.76;56.23;102204.94;4956825;29;1903;-51
2022/10/28 09:42:07;;;;;;;;;;;;;;;15.65;56.28;102195.56;4975003;28;1168;-54
2022/10/28 09:44:40;;;;;;;;;;;;;;;15.72;56.21;102193.59;4980542;28;1231;-53
2022/10/28 09:47:12;;;;;;;;;;;;;;;17.43;52.73;102180.00;4957739;28;1169;-53
2022/10/28 09:49:38;;;;;;;;;;;;;;;16.66;54.54;102172.88;4979794;28;1196;-57
2022/10/28 09:52:04;;;;;;;;;;;;;;;16.22;55.66;102175.13;4983675;28;1296;-52
2022/10/28 09:54:37;;;;;;;;;;;;;;;16.01;56.05;102174.63;4957284;28;1196;-53
2022/10/28 09:57:02;;;;;;;;;;;;;;;15.90;56.30;102172.69;4967943;28;1199;-50
2022/10/28 09:59:27;;;;;;;;;;;;;;;15.80;56.33;102172.44;4957369;28;1971;-51
2022/10/28 10:01:53;;;;;;;;;;;;;;;15.70;56.21;102165.56;4980777;28;1196;-53
2022/10/28 10:04:22;;;;;;;;;;;;;;;15.72;56.28;102168.91;4951882;28;2320;-52
2022/10/28 10:06:57;;;;;;;;;;;;;;;16.53;55.01;102164.88;4950926;28;1090;-47
2022/10/28 10:09:26;;;;;;;;;;;;;;;17.23;53.24;102155.69;4985311;28;1454;-50
2022/10/28 10:11:58;;;;;;;;;;;;;;;16.36;55.58;102162.84;4960045;29;1109;-50
2022/10/28 10:14:33;;;;;;;;;;;;;;;16.10;56.10;102158.63;4960830;28;1145;-46
2022/10/28 10:17:03;;;;;;;;;;;;;;;15.96;56.56;102148.97;4986260;28;1222;-50
2022/10/28 10:19:39;;;;;;;;;;;;;;;15.84;56.55;102158.00;4984704;28;1991;-51
2022/10/28 10:22:04;;;;;;;;;;;;;;;15.76;56.79;102152.81;4991178;28;1232;-53
2022/10/28 10:24:32;;;;;;;;;;;;;;;16.32;56.07;102153.41;4948633;28;1102;-51
2022/10/28 10:27:17;;;;;;;;;;;;;;;17.59;52.37;102144.56;4959855;29;1221;-52
2022/10/28 10:29:46;;;;;;;;;;;;;;;16.50;55.45;102146.97;4959182;28;1252;-49
2022/10/28 10:32:18;;;;;;;;;;;;;;;16.21;56.16;102156.97;4955257;28;1164;-53
2022/10/28 10:35:08;;;;;;;;;;;;;;;16.06;56.29;102143.72;4987761;28;1774;-51
2022/10/28 10:37:34;;;;;;;;;;;;;;;15.92;56.56;102148.56;4948519;28;1468;-56
2022/10/28 10:40:14;;;;;;;;;;;;;;;15.83;56.54;102136.28;4959467;29;1985;-52
2022/10/28 10:42:40;;;;;;;;;;;;;;;17.40;53.38;102136.50;4948827;29;1114;-53
2022/10/28 10:45:15;;;;;;;;;;;;;;;16.79;54.78;102137.97;4948195;28;1125;-48
2022/10/28 10:47:40;;;;;;;;;;;;;;;16.36;56.19;102132.63;4947069;29;1075;-52
2022/10/28 10:50:21;;;;;;;;;;;;;;;16.15;56.35;102134.06;4960478;28;1129;-53
2022/10/28 10:52:47;;;;;;;;;;;;;;;15.99;56.53;102127.38;4948237;29;1177;-50
2022/10/28 10:55:18;;;;;;;;;;;;;;;15.89;56.55;102129.84;4960136;28;1034;-48
2022/10/28 10:57:45;;;;;;;;;;;;;;;15.82;56.79;102126.38;4959438;28;1101;-51
2022/10/28 11:00:14;;;;;;;;;;;;;;;17.43;53.67;102132.41;4982856;28;1973;-49
2022/10/28 11:02:39;;;;;;;;;;;;;;;16.74;55.08;102145.00;4985808;28;1219;-53
2022/10/28 11:05:08;;;;;;;;;;;;;;;16.33;56.39;102138.63;4959372;28;2672;-52
2022/10/28 11:07:34;;;;;;;;;;;;;;;16.15;56.35;102139.56;4978626;28;1120;-54
2022/10/28 11:09:59;;;;;;;;;;;;;;;16.01;56.55;102141.69;4989444;28;1288;-54
2022/10/28 11:12:25;;;;;;;;;;;;;;;15.95;56.66;102136.31;4959988;28;1216;-53
2022/10/28 11:14:57;;;;;;;;;;;;;;;15.80;57.03;102134.03;4957265;28;1190;-53
2022/10/28 11:17:23;;;;;;;;;;;;;;;15.76;56.76;102132.78;4950150;29;1141;-50
2022/10/28 11:19:49;;;;;;;;;;;;;;;16.09;56.72;102135.03;4945885;28;1915;-52
2022/10/28 11:22:20;;;;;;;;;;;;;;;17.55;53.52;102127.69;4959499;28;1011;-50
2022/10/28 11:24:49;;;;;;;;;;;;;;;16.60;55.82;102135.38;4959066;28;1166;-51
2022/10/28 11:27:30;;;;;;;;;;;;;;;16.25;56.66;102128.00;4959579;28;1165;-52
2022/10/28 11:29:56;;;;;;;;;;;;;;;16.11;56.76;102127.38;4977049;28;1164;-48
2022/10/28 11:32:22;;;;;;;;;;;;;;;15.92;57.11;102126.63;4983684;28;1184;-52
2022/10/28 11:34:47;;;;;;;;;;;;;;;15.83;57.05;102126.16;4955340;28;2669;-53
2022/10/28 11:37:12;;;;;;;;;;;;;;;16.23;57.00;102121.91;4959332;28;1144;-51
2022/10/28 11:39:57;;;;;;;;;;;;;;;17.44;53.88;102118.41;4959659;28;1914;-50
2022/10/28 11:42:41;;;;;;;;;;;;;;;16.47;56.52;102120.00;4958958;28;1181;-48
2022/10/28 11:45:09;;;;;;;;;;;;;;;16.18;57.08;102108.88;4959819;28;1106;-51
2022/10/28 11:47:37;;;;;;;;;;;;;;;16.02;57.11;102118.69;4957678;29;1391;-51
2022/10/28 11:50:21;;;;;;;;;;;;;;;15.95;57.26;102123.44;4978187;28;1081;-48
2022/10/28 11:52:46;;;;;;;;;;;;;;;15.85;57.30;102115.78;4946943;29;1169;-50
2022/10/28 11:55:44;;;;;;;;;;;;;;;15.76;57.21;102111.69;4959175;28;1395;-52
2022/10/28 11:58:10;;;;;;;;;;;;;;;15.67;57.35;102108.44;4954342;29;1124;-51
2022/10/28 12:00:54;;;;;;;;;;;;;;;16.52;56.41;102117.38;4958911;28;1968;-56
2022/10/28 12:03:22;;;;;;;;;;;;;;;17.45;54.15;102113.78;4945419;29;2224;-52
2022/10/28 12:06:07;;;;;;;;;;;;;;;16.51;56.54;102103.84;4989626;28;1101;-53
2022/10/28 12:08:51;;;;;;;;;;;;;;;16.22;57.08;102103.78;4947013;29;1141;-54
2022/10/28 12:11:20;;;;;;;;;;;;;;;16.04;57.23;102105.53;4958325;28;1106;-54
2022/10/28 12:13:48;;;;;;;;;;;;;;;15.90;57.44;102109.59;4958875;28;1090;-55
2022/10/28 12:16:20;;;;;;;;;;;;;;;15.84;57.24;102105.06;4958431;28;1184;-55
2022/10/28 12:18:48;;;;;;;;;;;;;;;15.78;57.50;102106.81;4982671;28;1969;-53
2022/10/28 12:21:19;;;;;;;;;;;;;;;17.42;54.80;102095.84;4983289;28;1193;-51
2022/10/28 12:23:44;;;;;;;;;;;;;;;16.69;56.38;102097.38;4949065;29;1007;-53
2022/10/28 12:26:11;;;;;;;;;;;;;;;16.30;57.30;102091.59;4981878;28;1112;-54
2022/10/28 12:28:48;;;;;;;;;;;;;;;16.11;57.41;102097.19;4944906;28;1165;-53
2022/10/28 12:31:27;;;;;;;;;;;;;;;15.99;57.54;102105.44;4956773;28;1102;-55
2022/10/28 12:33:56;;;;;;;;;;;;;;;15.87;57.36;102099.91;4943881;28;1964;-50
2022/10/28 12:36:35;;;;;;;;;;;;;;;15.80;57.21;102099.19;4957151;29;1142;-51
2022/10/28 12:39:01;;;;;;;;;;;;;;;16.02;57.29;102090.38;4969563;28;1906;-49
2022/10/28 12:41:29;;;;;;;;;;;;;;;17.56;54.48;102093.63;4950904;29;1091;-51
2022/10/28 12:44:00;;;;;;;;;;;;;;;16.72;56.62;102096.91;4958136;28;1122;-51
2022/10/28 12:46:38;;;;;;;;;;;;;;;16.27;57.40;102094.81;4983259;28;1072;-49
2022/10/28 12:49:15;;;;;;;;;;;;;;;16.11;57.35;102090.88;4958101;28;1122;-53
2022/10/28 12:51:40;;;;;;;;;;;;;;;16.01;57.51;102092.31;4977146;28;1207;-51